ADDS METAR Data INFO
IDs: Format: Raw Decoded Include TAF

Data at: 1010 UTC 22 May 2018

KCNO 220953Z 26005KT 9SM OVC046 15/10 A2988 RMK AO2 SLP116 T01500100
KCNO 220909Z 25008KT 9SM FEW027 OVC047 15/10 A2989 RMK AO2 T01500100
KCNO 220853Z 26007KT 9SM BKN025 OVC046 15/11 A2989 RMK AO2 SLP118 T01500106 58004
KCNO 220843Z 26007KT 9SM BKN025 OVC046 15/11 A2989 RMK AO2 T01500106
KCNO 220822Z 26010KT 8SM SCT026 OVC046 15/11 A2989 RMK AO2 T01500111
KCNO 220753Z 26007KT 7SM BKN026 OVC047 16/11 A2990 RMK AO2 SLP120 T01560111 402000150
KCNO 220653Z 27006KT 8SM FEW028 OVC047 16/11 A2990 RMK AO2 SLP123 T01560111
KCNO 220646Z 27007KT 8SM SCT028 OVC046 16/11 A2990 RMK AO2 T01560111
KCNO 220633Z 28008KT 8SM BKN029 OVC046 16/11 A2991 RMK AO2 T01610111
KCNO 220553Z 27008KT 8SM BKN046 16/11 A2990 RMK AO2 SLP123 T01560111 10194 20156 52009
KCNO 220453Z 24008KT 8SM OVC046 16/11 A2990 RMK AO2 SLP120 T01610111
KCNO 220353Z 25007KT 10SM OVC044 16/11 A2988 RMK AO2 SLP116 LAST T01610106
KCNO 220253Z 24007KT 10SM OVC045 17/11 A2987 RMK AO2 SLP113 T01670106 53005
KCNO 220153Z COR 25013KT 10SM BKN028 BKN045 18/11 A2986 RMK AO2 SLP109 T01780106
KCNO 220053Z 25011KT 10SM BKN028 OVC045 18/11 A2986 RMK AO2 SLP107 T01830106
KCNO 212353Z 24011KT 10SM BKN028 BKN048 19/10 A2986 RMK AO2 SLP107 T01890100 10200 20167 56009
KCNO 212253Z 26013KT 10SM BKN024 19/11 A2987 RMK AO2 SLP110 T01890111
KCNO 212153Z COR 26011KT 10SM BKN021 18/11 A2988 RMK AO2 SLP114 T01830111
KCNO 212053Z 24012KT 10SM OVC025 19/12 A2989 RMK AO2 SLP117 T01890117 58003
KCNO 211953Z 24010KT 10SM OVC027 19/12 A2990 RMK AO2 SLP120 T01890117
KCNO 211853Z 23009KT 10SM OVC027 18/12 A2990 RMK AO2 SLP121 T01780117
KCNO 211753Z 22008KT 7SM OVC025 17/13 A2990 RMK AO2 SLP121 60000 T01670128 10172 20150 $
KCNO 211653Z 25010KT 4SM BR BKN016 OVC024 16/13 A2990 RMK AO2 SLP121 T01560128
KCNO 211612Z 24009KT 4SM BR BKN017 OVC023 15/13 A2989 RMK AO2 T01500128
KCNO 211553Z 24010KT 4SM BR OVC009 15/12 A2989 RMK AO2 RAB37E48 SLP119 P0000 T01500122
KCNO 211518Z 24008KT 4SM HZ OVC009 15/12 A2988 RMK AO2 T01500122
KCNO 211453Z 24006KT 4SM HZ SCT015 OVC021 16/12 A2988 RMK AO2 SLP114 T01560122 53008
KCNO 211353Z 26007KT 10SM FEW014 OVC021 16/12 A2987 RMK AO2 SLP110 T01560122
KCNO 211253Z AUTO 28007KT 9SM FEW009 OVC017 15/13 A2986 RMK AO2 SLP106 T01500128
KCNO 211153Z AUTO 28006KT 9SM OVC013 16/12 A2985 RMK AO2 SLP105 T01560122 10167 20156 58004
KCNO 211109Z AUTO 27007KT 9SM BKN013 OVC030 16/12 A2986 RMK AO2 T01610122
KCNO 211053Z AUTO 29007KT 8SM FEW013 OVC031 16/12 A2986 RMK AO2 SLP107 T01610122
KCNO 210953Z AUTO 28008KT 6SM HZ SCT017 OVC032 16/12 A2986 RMK AO2 SLP108 T01610117
KCNO 210950Z AUTO 27008KT 7SM SCT017 OVC032 16/12 A2987 RMK AO2
KCNO 210853Z AUTO 27006KT 6SM HZ OVC016 16/12 A2987 RMK AO2 SLP112 T01610117 58006
KCNO 210753Z AUTO 26007KT 7SM OVC018 16/12 A2989 RMK AO2 SLP117 T01610117 402330161
KCNO 210653Z AUTO 27009KT 7SM BKN016 OVC021 17/12 A2989 RMK AO2 SLP118 T01670122
KCNO 210553Z AUTO 28008KT 7SM BKN025 17/12 A2989 RMK AO2 SLP119 T01670122 10222 20161 50003
KCNO 210453Z AUTO 26006KT 8SM BKN024 16/12 A2990 RMK AO2 SLP119 T01610122
KCNO 210449Z AUTO 26006KT 8SM BKN024 16/12 A2989 RMK AO2
KCNO 210353Z 24009KT 10SM CLR 17/12 A2988 RMK AO2 SLP117 LAST T01670122
KCNO 210253Z 26010KT 10SM SCT040 BKN200 17/12 A2988 RMK AO2 SLP114 T01720122 55000
KCNO 210153Z 24013KT 10SM SCT035 BKN150 19/12 A2987 RMK AO2 SLP111 T01890122
KCNO 210053Z COR 24015KT 10SM SCT035 BKN200 21/12 A2988 RMK AO2 SLP113 T02110122
KCNO 202353Z 24013KT 10SM SCT035 BKN200 22/12 A2988 RMK AO2 SLP114 T02220122 10233 20194 58016
KCNO 202253Z 26010KT 10SM BKN034 23/11 A2989 RMK AO2 SLP118 T02280111